Angora, NE

11:48 AM MST on March 03, 2015 (GMT -0700)
Wayne Rd. | Change Station
CLOSE
Current Station
Personal Weather Station
Location: Alliance, NE
Elevation: 4091 ft
Nearby Weather Stations

Elev 4091 ft 42.02 °N, 103.05 °W | Updated 8 minutes ago

Overcast
Overcast
16.8 °F
Feels Like 7 °F
N
7.0
Wind Variable Wind from NE
Gusts 13.0 mph

Today
High -- | Low -- °F
--% Chance of Precip.
Yesterday
High -- | Low -- °F
Precip. -- in
6:24 AM 5:44 PM
Waxing Gibbous, 97% visible
Pressure 30.10 in
Visibility 8.0 miles
Clouds Few 1900 ft
Mostly Cloudy 3300 ft
Overcast 6000 ft
Windchill 7 °F
Dew Point 10 °F
Humidity 76%
Rainfall 0.00 in
Snow Depth Not available.
UV 2 out of 12
Pollen .60 out of 12
Air Quality Not available.
Flu Activity Not available.
METAR KAIA 031753Z AUTO 01014G20KT 8SM FEW019 BKN033 OVC060 M08/M13 A2998 RMK AO2 SNE41 SLP191 P0000 60000 T10831133 11061 21094 53017

More Conditions Fewer Conditions

Pressure 30.10 in
Visibility 8.0 miles
Clouds Few 1900 ft
Mostly Cloudy 3300 ft
Overcast 6000 ft
Windchill 7 °F
Dew Point 10 °F
Humidity 76%
Rainfall 0.00 in
Snow Depth Not available.
UV 2 out of 12
Pollen .60 out of 12
Air Quality Not available.
Flu Activity Not available.
METAR KAIA 031753Z AUTO 01014G20KT 8SM FEW019 BKN033 OVC060 M08/M13 A2998 RMK AO2 SNE41 SLP191 P0000 60000 T10831133 11061 21094 53017

More Conditions Fewer Conditions

10-Day Weather Forecast

Almanac

Astronomy

Mar. 03, 2015 Rise Set
Actual Time
Civil Twilight
Nautical Twilight
Astronomical Twilight
Moon
Length of Visible Light
Length of Day
Tomorrow will be .
, % of the Moon is Illuminated

Today's Extremes

State Highs State Lows

Community

WunderPhotos

Upload Photos

1,802,198 photos uploaded!

WunderBlogs® & News

Nearby

Air Quality

  Air Quality AQ Index Pollutant
Not available.

Snow Depth

Station Depth Elevation

Earthquake Activity

City Distance Mag. Time & Date
Minimum magnitude displayed is 2.5.

Coastal Water Temperatures

Place Temperature

Nearby Weather Stations